Time;durP1;ratioP1;P1;durP2;ratioP2;P2;SDS_P1;SDS_P2;PMS_P1;PMS_P2;Temp;Humidity;BMP_temperature;BMP_pressure;BME280_temperature;BME280_humidity;BME280_pressure;Samples;Min_cycle;Max_cycle;Signal;HPM_P1;HPM_P2
2022/07/31 00:02:19;;;;;;;;;;;20.00;53.80;;;;;;5165056;27;19926;-48
2022/07/31 00:04:45;;;;;;;;;;;20.90;55.10;;;;;;5164949;27;19922;-45
2022/07/31 00:07:11;;;;;;;;;;;21.80;53.60;;;;;;5170338;27;19930;-47
2022/07/31 00:09:37;;;;;;;;;;;21.10;52.60;;;;;;5163444;27;20422;-48
2022/07/31 00:12:03;;;;;;;;;;;20.40;51.90;;;;;;5163898;27;19927;-46
2022/07/31 00:14:29;;;;;;;;;;;20.20;51.10;;;;;;5170023;27;20069;-48
2022/07/31 00:16:56;;;;;;;;;;;20.00;50.80;;;;;;5165053;27;20293;-48
2022/07/31 00:19:22;;;;;;;;;;;19.90;50.40;;;;;;5170313;27;19948;-48
2022/07/31 00:21:47;;;;;;;;;;;20.20;54.30;;;;;;5128393;27;19923;-47
2022/07/31 00:24:13;;;;;;;;;;;21.10;54.90;;;;;;5164621;27;19922;-45
2022/07/31 00:26:39;;;;;;;;;;;21.80;52.80;;;;;;5169432;27;19930;-46
2022/07/31 00:29:05;;;;;;;;;;;21.00;52.30;;;;;;5163230;27;19927;-47
2022/07/31 00:31:31;;;;;;;;;;;20.40;52.10;;;;;;5164001;27;19973;-48
2022/07/31 00:33:57;;;;;;;;;;;20.00;51.40;;;;;;5169776;27;20383;-46
2022/07/31 00:36:22;;;;;;;;;;;19.90;50.80;;;;;;5164615;27;19930;-46
2022/07/31 00:38:48;;;;;;;;;;;19.80;50.50;;;;;;5170150;27;19923;-54
2022/07/31 00:41:14;;;;;;;;;;;20.30;54.10;;;;;;5164576;27;19933;-46
2022/07/31 00:43:40;;;;;;;;;;;21.10;54.70;;;;;;5164080;27;19927;-47
2022/07/31 00:46:06;;;;;;;;;;;21.80;52.70;;;;;;5168460;27;19969;-45
2022/07/31 00:48:32;;;;;;;;;;;20.80;52.40;;;;;;5163345;27;20266;-47
2022/07/31 00:50:58;;;;;;;;;;;20.40;51.70;;;;;;5163809;27;19953;-46
2022/07/31 00:53:24;;;;;;;;;;;20.10;51.60;;;;;;5169740;27;20017;-46
2022/07/31 00:55:50;;;;;;;;;;;20.00;51.00;;;;;;5164172;27;20025;-47
2022/07/31 00:58:17;;;;;;;;;;;19.80;50.60;;;;;;5167221;27;19930;-56
2022/07/31 01:00:42;;;;;;;;;;;20.50;55.10;;;;;;5166969;27;19926;-49
2022/07/31 01:03:08;;;;;;;;;;;21.30;54.40;;;;;;5163663;27;19927;-49
2022/07/31 01:05:34;;;;;;;;;;;21.60;52.80;;;;;;5167880;27;19930;-49
2022/07/31 01:08:00;;;;;;;;;;;20.60;52.70;;;;;;5163376;27;20542;-47
2022/07/31 01:10:43;;;;;;;;;;;20.40;51.50;;;;;;5163941;27;19975;-48
2022/07/31 01:13:11;;;;;;;;;;;20.00;51.20;;;;;;5150660;27;20013;-49
2022/07/31 01:15:37;;;;;;;;;;;20.10;50.10;;;;;;5163605;27;19927;-48
2022/07/31 01:18:03;;;;;;;;;;;20.00;52.70;;;;;;5163624;27;20910;-47
2022/07/31 01:20:29;;;;;;;;;;;20.80;55.40;;;;;;5169025;27;20292;-47
2022/07/31 01:22:58;;;;;;;;;;;21.70;54.00;;;;;;5162024;27;19926;-55
2022/07/31 01:25:42;;;;;;;;;;;21.00;53.00;;;;;;5165204;27;19927;-56
2022/07/31 01:28:17;;;;;;;;;;;20.40;52.50;;;;;;5168924;27;19922;-47
2022/07/31 01:30:47;;;;;;;;;;;20.20;51.70;;;;;;5163639;27;19923;-47
2022/07/31 01:33:13;;;;;;;;;;;20.00;50.80;;;;;;5163729;27;20352;-53
2022/07/31 01:35:40;;;;;;;;;;;19.90;50.20;;;;;;5168915;27;19926;-47
2022/07/31 01:38:08;;;;;;;;;;;20.00;53.30;;;;;;5163364;27;19937;-48
2022/07/31 01:40:34;;;;;;;;;;;20.80;55.30;;;;;;5148928;27;19929;-46
2022/07/31 01:43:01;;;;;;;;;;;21.70;53.80;;;;;;5162214;27;19923;-47
2022/07/31 01:45:27;;;;;;;;;;;21.10;52.90;;;;;;5144639;27;19927;-47
2022/07/31 01:47:53;;;;;;;;;;;20.40;52.40;;;;;;5168875;27;20030;-46
2022/07/31 01:50:19;;;;;;;;;;;19.90;51.90;;;;;;5163300;27;19983;-46
2022/07/31 01:52:45;;;;;;;;;;;19.90;51.40;;;;;;5144533;27;20166;-47
2022/07/31 01:55:12;;;;;;;;;;;19.80;51.30;;;;;;5168598;27;19929;-46
2022/07/31 01:57:38;;;;;;;;;;;20.50;55.50;;;;;;5163114;27;19927;-45
2022/07/31 02:00:05;;;;;;;;;;;21.40;54.60;;;;;;5166868;27;19930;-50
2022/07/31 02:02:31;;;;;;;;;;;21.40;53.00;;;;;;5161527;27;19922;-47
2022/07/31 02:04:57;;;;;;;;;;;20.70;52.60;;;;;;5162859;27;19997;-47
2022/07/31 02:07:24;;;;;;;;;;;20.30;51.80;;;;;;5168683;27;19927;-50
2022/07/31 02:09:49;;;;;;;;;;;20.00;51.30;;;;;;5144577;27;19927;-46
2022/07/31 02:12:15;;;;;;;;;;;19.80;51.00;;;;;;5144258;27;20363;-46
2022/07/31 02:14:41;;;;;;;;;;;19.70;51.00;;;;;;5132062;27;19922;-47
2022/07/31 02:17:07;;;;;;;;;;;20.40;55.40;;;;;;5142189;27;19923;-47
2022/07/31 02:19:33;;;;;;;;;;;21.30;54.90;;;;;;5164956;27;19999;-56
2022/07/31 02:21:59;;;;;;;;;;;21.50;52.90;;;;;;5146647;27;20288;-47
2022/07/31 02:24:25;;;;;;;;;;;20.70;52.40;;;;;;5162740;27;20286;-46
2022/07/31 02:26:51;;;;;;;;;;;20.20;51.80;;;;;;5168405;27;19923;-46
2022/07/31 02:29:17;;;;;;;;;;;20.00;51.00;;;;;;5162644;27;19930;-48
2022/07/31 02:31:43;;;;;;;;;;;19.80;50.80;;;;;;5162207;27;19928;-47
2022/07/31 02:34:11;;;;;;;;;;;20.00;53.80;;;;;;5168047;27;19926;-46
2022/07/31 02:36:36;;;;;;;;;;;20.80;55.50;;;;;;5160975;27;19936;-47
2022/07/31 02:39:02;;;;;;;;;;;21.70;54.00;;;;;;5161746;27;20377;-55
2022/07/31 02:41:28;;;;;;;;;;;20.90;53.10;;;;;;5167396;27;20052;-48
2022/07/31 02:43:54;;;;;;;;;;;20.50;52.20;;;;;;5162631;27;20374;-47
2022/07/31 02:46:20;;;;;;;;;;;19.90;52.00;;;;;;5167912;27;19923;-47
2022/07/31 02:48:45;;;;;;;;;;;19.80;51.30;;;;;;5143538;27;20369;-48
2022/07/31 02:51:11;;;;;;;;;;;19.80;52.20;;;;;;5143597;27;20010;-46
2022/07/31 02:53:37;;;;;;;;;;;20.50;55.80;;;;;;5148209;27;20013;-46
2022/07/31 02:56:04;;;;;;;;;;;21.30;54.80;;;;;;5160483;27;19978;-47
2022/07/31 02:58:30;;;;;;;;;;;21.40;52.90;;;;;;5143150;27;20507;-46
2022/07/31 03:00:59;;;;;;;;;;;20.40;52.80;;;;;;5167552;27;19978;-50
2022/07/31 03:03:25;;;;;;;;;;;20.20;52.00;;;;;;5162000;27;20146;-49
2022/07/31 03:05:51;;;;;;;;;;;19.80;51.60;;;;;;5167662;27;19930;-50
2022/07/31 03:08:17;;;;;;;;;;;19.80;50.90;;;;;;5161782;27;19927;-47
2022/07/31 03:10:43;;;;;;;;;;;20.10;53.90;;;;;;5161701;27;19927;-48
2022/07/31 03:13:09;;;;;;;;;;;20.80;55.70;;;;;;5165765;27;20330;-51
2022/07/31 03:15:34;;;;;;;;;;;21.70;54.00;;;;;;5161402;27;19954;-48
2022/07/31 03:18:00;;;;;;;;;;;20.80;53.20;;;;;;5161546;27;19941;-47
2022/07/31 03:20:26;;;;;;;;;;;20.40;52.40;;;;;;5167414;27;20361;-47
2022/07/31 03:22:52;;;;;;;;;;;19.90;51.90;;;;;;5161647;27;20423;-45
2022/07/31 03:25:17;;;;;;;;;;;19.90;51.10;;;;;;5166246;27;19930;-55
2022/07/31 03:27:43;;;;;;;;;;;20.00;50.20;;;;;;5162552;27;19927;-47
2022/07/31 03:30:14;;;;;;;;;;;19.90;53.10;;;;;;5142472;27;19973;-48
2022/07/31 03:32:39;;;;;;;;;;;20.80;55.60;;;;;;5129724;27;19923;-48
2022/07/31 03:35:05;;;;;;;;;;;21.60;54.10;;;;;;5161175;27;19930;-47
2022/07/31 03:37:31;;;;;;;;;;;20.90;53.30;;;;;;5161603;27;20013;-48
2022/07/31 03:39:57;;;;;;;;;;;20.30;52.60;;;;;;5167336;27;19926;-46
2022/07/31 03:42:23;;;;;;;;;;;20.00;51.70;;;;;;5161896;27;19971;-46
2022/07/31 03:44:48;;;;;;;;;;;20.00;50.80;;;;;;5143577;27;19931;-55
2022/07/31 03:47:14;;;;;;;;;;;19.70;52.00;;;;;;5166663;27;19927;-46
2022/07/31 03:49:40;;;;;;;;;;;20.40;55.80;;;;;;5141469;27;19926;-46
2022/07/31 03:52:06;;;;;;;;;;;21.30;54.90;;;;;;5165927;27;19922;-45
2022/07/31 03:54:31;;;;;;;;;;;21.30;53.00;;;;;;5161251;27;20025;-46
2022/07/31 03:56:57;;;;;;;;;;;20.40;53.10;;;;;;5143074;27;20322;-47
2022/07/31 03:59:23;;;;;;;;;;;20.20;52.10;;;;;;5166993;27;19929;-50
2022/07/31 04:01:49;;;;;;;;;;;20.00;51.00;;;;;;5161208;27;19927;-46
2022/07/31 04:04:16;;;;;;;;;;;19.80;50.80;;;;;;5161417;27;19922;-46
2022/07/31 04:06:42;;;;;;;;;;;19.80;53.60;;;;;;5166724;27;20131;-50
2022/07/31 04:09:07;;;;;;;;;;;20.60;55.90;;;;;;5159834;27;19927;-51
2022/07/31 04:11:33;;;;;;;;;;;21.50;54.50;;;;;;5166062;27;19923;-48
2022/07/31 04:13:59;;;;;;;;;;;21.00;53.10;;;;;;5160969;27;19926;-47
2022/07/31 04:16:24;;;;;;;;;;;20.40;52.80;;;;;;5161201;27;19927;-50
2022/07/31 04:18:50;;;;;;;;;;;19.90;51.90;;;;;;5166510;27;19922;-52
2022/07/31 04:21:16;;;;;;;;;;;19.80;51.30;;;;;;5161260;27;20338;-47
2022/07/31 04:23:42;;;;;;;;;;;19.80;51.90;;;;;;5161330;27;19986;-51
2022/07/31 04:26:08;;;;;;;;;;;20.40;56.00;;;;;;5167670;27;20348;-47
2022/07/31 04:28:33;;;;;;;;;;;21.30;54.80;;;;;;5163911;27;19923;-47
2022/07/31 04:30:59;;;;;;;;;;;21.50;53.10;;;;;;5169908;27;19927;-48
2022/07/31 04:33:25;;;;;;;;;;;20.40;53.00;;;;;;5164755;27;19929;-47
2022/07/31 04:35:51;;;;;;;;;;;20.30;51.70;;;;;;5164724;27;19926;-47
2022/07/31 04:38:17;;;;;;;;;;;19.70;51.60;;;;;;5170217;27;20282;-47
2022/07/31 04:40:42;;;;;;;;;;;19.70;51.10;;;;;;5164400;27;20026;-51
2022/07/31 04:43:08;;;;;;;;;;;20.10;55.30;;;;;;5164338;27;19963;-51
2022/07/31 04:45:34;;;;;;;;;;;21.00;55.50;;;;;;5168035;27;19951;-50
2022/07/31 04:48:00;;;;;;;;;;;21.80;53.40;;;;;;5163706;27;19934;-49
2022/07/31 04:50:26;;;;;;;;;;;20.80;53.10;;;;;;5169341;27;20390;-49
2022/07/31 04:52:51;;;;;;;;;;;20.20;52.40;;;;;;5164775;27;19978;-46
2022/07/31 04:55:17;;;;;;;;;;;20.00;51.70;;;;;;5164364;27;19922;-48
2022/07/31 04:57:43;;;;;;;;;;;19.90;51.00;;;;;;5169276;27;19927;-45
2022/07/31 05:00:09;;;;;;;;;;;19.80;51.70;;;;;;5145515;27;19927;-48
2022/07/31 05:02:35;;;;;;;;;;;20.40;55.90;;;;;;5163077;27;20101;-48
2022/07/31 05:05:01;;;;;;;;;;;21.30;55.00;;;;;;5168225;27;19926;-46
2022/07/31 05:07:27;;;;;;;;;;;21.60;52.70;;;;;;5144964;27;20026;-47
2022/07/31 05:09:53;;;;;;;;;;;20.60;52.60;;;;;;5166975;27;20404;-55
2022/07/31 05:12:18;;;;;;;;;;;20.30;52.00;;;;;;5166769;27;19973;-45
2022/07/31 05:14:44;;;;;;;;;;;19.90;51.60;;;;;;5163884;27;19926;-45
2022/07/31 05:17:10;;;;;;;;;;;19.80;51.00;;;;;;5169298;27;19934;-49
2022/07/31 05:19:37;;;;;;;;;;;19.90;52.80;;;;;;5163667;27;20510;-47
2022/07/31 05:22:03;;;;;;;;;;;20.70;55.70;;;;;;5162196;27;19933;-49
2022/07/31 05:24:29;;;;;;;;;;;21.50;54.50;;;;;;5168557;27;19923;-50
2022/07/31 05:26:55;;;;;;;;;;;21.20;53.10;;;;;;5163626;27;19934;-46
2022/07/31 05:29:21;;;;;;;;;;;20.40;52.80;;;;;;5145477;27;19934;-52
2022/07/31 05:31:46;;;;;;;;;;;20.10;52.30;;;;;;5168957;27;20056;-48
2022/07/31 05:34:12;;;;;;;;;;;19.90;51.30;;;;;;5163382;27;19946;-47
2022/07/31 05:36:38;;;;;;;;;;;19.60;51.40;;;;;;5167590;27;19923;-46
2022/07/31 05:39:04;;;;;;;;;;;20.30;55.50;;;;;;5162544;27;19927;-48
2022/07/31 05:41:32;;;;;;;;;;;21.20;55.10;;;;;;5162134;27;19930;-46
2022/07/31 05:43:58;;;;;;;;;;;21.60;53.20;;;;;;5168729;27;20033;-48
2022/07/31 05:46:23;;;;;;;;;;;20.80;52.40;;;;;;5163439;27;19936;-49
2022/07/31 05:48:49;;;;;;;;;;;20.30;51.80;;;;;;5163751;27;19937;-46
2022/07/31 05:51:15;;;;;;;;;;;20.20;51.00;;;;;;5168844;27;19977;-46
2022/07/31 05:53:41;;;;;;;;;;;19.80;51.00;;;;;;5163182;27;19934;-49
2022/07/31 05:56:07;;;;;;;;;;;19.50;51.40;;;;;;5168645;27;19929;-51
2022/07/31 05:58:33;;;;;;;;;;;20.30;55.60;;;;;;5161651;27;20294;-50
2022/07/31 06:00:59;;;;;;;;;;;21.20;55.10;;;;;;5162417;27;19929;-47
2022/07/31 06:03:26;;;;;;;;;;;21.60;53.10;;;;;;5168318;27;19923;-46
2022/07/31 06:05:52;;;;;;;;;;;20.60;53.20;;;;;;5163200;27;19977;-47
2022/07/31 06:08:18;;;;;;;;;;;20.00;52.20;;;;;;5163236;27;20062;-46
2022/07/31 06:10:44;;;;;;;;;;;20.00;51.40;;;;;;5168329;27;19927;-47
2022/07/31 06:13:10;;;;;;;;;;;19.90;51.00;;;;;;5162788;27;20254;-47
2022/07/31 06:15:36;;;;;;;;;;;19.80;52.60;;;;;;5167362;27;20880;-50
2022/07/31 06:18:02;;;;;;;;;;;20.60;55.70;;;;;;5161739;27;19981;-50
2022/07/31 06:20:28;;;;;;;;;;;21.40;54.50;;;;;;5162220;27;19930;-46
2022/07/31 06:22:54;;;;;;;;;;;21.30;52.90;;;;;;5168082;27;19923;-45
2022/07/31 06:25:20;;;;;;;;;;;20.60;52.70;;;;;;5144025;27;20278;-46
2022/07/31 06:27:45;;;;;;;;;;;20.20;52.30;;;;;;5142876;27;19935;-46
2022/07/31 06:30:12;;;;;;;;;;;20.00;51.60;;;;;;5168087;27;20290;-46
2022/07/31 06:32:37;;;;;;;;;;;19.80;51.10;;;;;;5162540;27;20057;-47
2022/07/31 06:35:03;;;;;;;;;;;20.00;52.40;;;;;;5163517;27;20409;-52
2022/07/31 06:37:29;;;;;;;;;;;20.70;55.70;;;;;;5164840;27;19923;-46
2022/07/31 06:39:55;;;;;;;;;;;21.50;54.60;;;;;;5143713;27;20370;-49
2022/07/31 06:42:21;;;;;;;;;;;21.30;53.30;;;;;;5168062;27;19923;-49
2022/07/31 06:44:47;;;;;;;;;;;20.50;53.20;;;;;;5162627;27;19958;-51
2022/07/31 06:47:12;;;;;;;;;;;20.20;52.20;;;;;;5162442;27;19927;-48
2022/07/31 06:49:38;;;;;;;;;;;20.10;51.20;;;;;;5167504;27;20056;-47
2022/07/31 06:52:04;;;;;;;;;;;19.80;51.30;;;;;;5161853;27;20828;-54
2022/07/31 06:54:30;;;;;;;;;;;19.90;51.10;;;;;;5160947;27;19930;-54
2022/07/31 06:56:56;;;;;;;;;;;20.50;55.70;;;;;;5167034;27;20381;-47
2022/07/31 06:59:22;;;;;;;;;;;21.30;55.70;;;;;;5162184;27;20047;-46
2022/07/31 07:01:47;;;;;;;;;;;21.70;53.70;;;;;;5167676;27;19976;-49
2022/07/31 07:04:13;;;;;;;;;;;20.70;53.20;;;;;;5162094;27;19975;-50
2022/07/31 07:06:39;;;;;;;;;;;20.30;52.60;;;;;;5161955;27;20389;-47
2022/07/31 07:09:05;;;;;;;;;;;20.10;51.70;;;;;;5167500;27;19933;-47
2022/07/31 07:11:31;;;;;;;;;;;20.00;50.90;;;;;;5142067;27;20373;-49
2022/07/31 07:13:56;;;;;;;;;;;19.70;50.90;;;;;;5160755;27;19923;-49
2022/07/31 07:16:22;;;;;;;;;;;20.10;54.70;;;;;;5148673;27;19953;-46
2022/07/31 07:18:48;;;;;;;;;;;21.00;56.20;;;;;;5143157;27;19923;-47
2022/07/31 07:21:14;;;;;;;;;;;21.80;54.60;;;;;;5167594;27;19926;-48
2022/07/31 07:23:40;;;;;;;;;;;21.00;53.40;;;;;;5161594;27;20374;-48
2022/07/31 07:26:05;;;;;;;;;;;20.30;53.20;;;;;;5161576;27;19934;-47
2022/07/31 07:28:31;;;;;;;;;;;20.20;52.20;;;;;;5167278;27;20283;-49
2022/07/31 07:30:57;;;;;;;;;;;20.10;51.40;;;;;;5141509;27;20322;-49
2022/07/31 07:33:23;;;;;;;;;;;19.90;51.00;;;;;;5161130;27;20237;-47
2022/07/31 07:35:49;;;;;;;;;;;20.30;55.60;;;;;;5167054;27;19956;-48
2022/07/31 07:38:14;;;;;;;;;;;21.20;56.20;;;;;;5161761;27;20271;-48
2022/07/31 07:40:40;;;;;;;;;;;21.70;54.30;;;;;;5167091;27;19930;-46
2022/07/31 07:43:06;;;;;;;;;;;20.80;53.50;;;;;;5161717;27;19974;-47
2022/07/31 07:45:32;;;;;;;;;;;20.50;52.70;;;;;;5161675;27;19923;-49
2022/07/31 07:47:58;;;;;;;;;;;20.10;52.40;;;;;;5165937;27;19929;-49
2022/07/31 07:50:24;;;;;;;;;;;20.00;51.70;;;;;;5160611;27;19959;-45
2022/07/31 07:52:49;;;;;;;;;;;19.70;51.50;;;;;;5161431;27;19926;-47
2022/07/31 07:55:15;;;;;;;;;;;20.30;55.60;;;;;;5148541;27;19926;-48
2022/07/31 07:57:42;;;;;;;;;;;21.10;56.40;;;;;;5161754;27;19927;-48
2022/07/31 08:00:08;;;;;;;;;;;21.80;54.40;;;;;;5166965;27;19923;-54
2022/07/31 08:02:34;;;;;;;;;;;20.90;53.50;;;;;;5166385;27;19933;-49
2022/07/31 08:05:00;;;;;;;;;;;20.40;53.00;;;;;;5165224;27;19923;-47
2022/07/31 08:07:29;;;;;;;;;;;20.00;52.80;;;;;;5168864;27;19926;-47
2022/07/31 08:09:55;;;;;;;;;;;20.00;51.80;;;;;;5164336;27;20014;-47
2022/07/31 08:12:21;;;;;;;;;;;20.10;51.00;;;;;;5164741;27;19975;-46
2022/07/31 08:14:47;;;;;;;;;;;19.80;52.20;;;;;;5170384;27;19930;-46
2022/07/31 08:17:13;;;;;;;;;;;20.40;56.70;;;;;;5165114;27;19965;-50
2022/07/31 08:19:39;;;;;;;;;;;21.30;56.30;;;;;;5165545;27;19923;-54
2022/07/31 08:22:04;;;;;;;;;;;21.60;54.40;;;;;;5169847;27;19929;-46
2022/07/31 08:24:30;;;;;;;;;;;20.80;53.50;;;;;;5163662;27;19922;-47
2022/07/31 08:29:41;;;;;;;;;;;20.10;52.60;;;;;;5165960;27;20382;-48
2022/07/31 08:32:06;;;;;;;;;;;20.00;51.40;;;;;;5164654;27;20244;-46
2022/07/31 08:34:32;;;;;;;;;;;19.80;51.30;;;;;;5170247;27;19959;-46
2022/07/31 08:36:58;;;;;;;;;;;20.30;55.50;;;;;;5164413;27;20384;-49
2022/07/31 08:39:24;;;;;;;;;;;21.10;56.80;;;;;;5164205;27;20278;-45
2022/07/31 08:41:50;;;;;;;;;;;21.80;54.90;;;;;;5169844;27;20393;-46
2022/07/31 08:44:15;;;;;;;;;;;20.80;54.50;;;;;;5162856;27;19946;-46
2022/07/31 08:46:41;;;;;;;;;;;20.50;53.30;;;;;;5165957;27;19938;-57
2022/07/31 08:49:08;;;;;;;;;;;20.30;52.30;;;;;;5163513;27;20380;-50
2022/07/31 08:51:35;;;;;;;;;;;20.20;52.00;;;;;;5164538;27;20528;-48
2022/07/31 08:54:02;;;;;;;;;;;20.00;51.50;;;;;;5169721;27;20026;-47
2022/07/31 08:56:27;;;;;;;;;;;19.80;51.10;;;;;;5145692;27;19954;-47
2022/07/31 08:58:56;;;;;;;;;;;20.30;55.10;;;;;;5164326;27;20017;-48
2022/07/31 09:01:22;;;;;;;;;;;21.10;56.90;;;;;;5168699;27;19923;-47
2022/07/31 09:03:48;;;;;;;;;;;21.80;55.40;;;;;;5162735;27;21039;-47
2022/07/31 09:06:13;;;;;;;;;;;20.80;54.60;;;;;;5163732;27;19923;-48
2022/07/31 09:08:39;;;;;;;;;;;20.60;53.50;;;;;;5169586;27;19923;-47
2022/07/31 09:11:06;;;;;;;;;;;20.30;52.60;;;;;;5164150;27;19922;-46
2022/07/31 09:13:33;;;;;;;;;;;20.20;51.80;;;;;;5169438;27;19927;-46
2022/07/31 09:15:59;;;;;;;;;;;20.00;51.70;;;;;;5164005;27;19923;-48
2022/07/31 09:18:25;;;;;;;;;;;19.80;51.30;;;;;;5164003;27;19947;-49
2022/07/31 09:21:00;;;;;;;;;;;20.30;55.50;;;;;;5167699;27;20244;-48
2022/07/31 09:23:26;;;;;;;;;;;21.00;57.10;;;;;;5162954;27;19939;-47
2022/07/31 09:25:53;;;;;;;;;;;21.80;55.00;;;;;;5163506;27;20301;-48
2022/07/31 09:28:19;;;;;;;;;;;21.00;54.20;;;;;;5133605;27;19927;-45
2022/07/31 09:30:54;;;;;;;;;;;20.60;53.20;;;;;;5143358;27;19968;-46
2022/07/31 09:33:20;;;;;;;;;;;20.30;52.30;;;;;;5163481;27;19923;-47
2022/07/31 09:35:47;;;;;;;;;;;20.30;51.70;;;;;;5168992;27;19923;-44
2022/07/31 09:38:12;;;;;;;;;;;20.00;51.50;;;;;;5162407;27;19923;-49
2022/07/31 09:40:42;;;;;;;;;;;19.70;51.60;;;;;;5167780;27;19933;-48
2022/07/31 09:43:14;;;;;;;;;;;19.90;53.20;;;;;;5162915;27;19927;-46
2022/07/31 09:45:39;;;;;;;;;;;20.80;56.20;;;;;;5163682;27;19926;-46
2022/07/31 09:48:11;;;;;;;;;;;21.60;55.60;;;;;;5149554;27;20213;-47
2022/07/31 09:50:38;;;;;;;;;;;21.30;54.00;;;;;;5163516;27;19922;-47
2022/07/31 09:53:05;;;;;;;;;;;20.70;53.30;;;;;;5163152;27;19991;-45
2022/07/31 09:55:31;;;;;;;;;;;20.20;52.50;;;;;;5168596;27;19923;-52
2022/07/31 09:57:57;;;;;;;;;;;20.20;52.00;;;;;;5161306;27;19930;-46
2022/07/31 10:00:23;;;;;;;;;;;20.20;51.20;;;;;;5162584;27;20449;-44
2022/07/31 10:02:49;;;;;;;;;;;20.10;51.00;;;;;;5150154;27;20030;-50
2022/07/31 10:05:15;;;;;;;;;;;20.00;50.80;;;;;;5163677;27;20263;-47
2022/07/31 10:07:41;;;;;;;;;;;20.00;52.20;;;;;;5149909;27;19972;-48
2022/07/31 10:10:07;;;;;;;;;;;20.90;55.20;;;;;;5162974;27;20262;-49
2022/07/31 10:12:33;;;;;;;;;;;21.70;54.90;;;;;;5162978;27;20400;-49
2022/07/31 10:15:09;;;;;;;;;;;21.30;53.70;;;;;;5167129;27;19927;-46
2022/07/31 10:17:38;;;;;;;;;;;20.90;52.80;;;;;;5161677;27;20013;-45
2022/07/31 10:20:05;;;;;;;;;;;20.50;52.40;;;;;;5162512;27;19923;-47
2022/07/31 10:22:34;;;;;;;;;;;20.50;51.40;;;;;;5167368;27;20033;-47
2022/07/31 10:25:00;;;;;;;;;;;20.40;50.90;;;;;;5163075;27;20353;-46
2022/07/31 10:27:26;;;;;;;;;;;20.20;50.90;;;;;;5162615;27;19927;-53
2022/07/31 10:29:52;;;;;;;;;;;20.20;51.00;;;;;;5168131;27;20023;-49
2022/07/31 10:32:18;;;;;;;;;;;19.80;51.20;;;;;;5162680;27;19970;-49
2022/07/31 10:34:43;;;;;;;;;;;19.90;53.30;;;;;;5166413;27;19971;-47
2022/07/31 10:37:14;;;;;;;;;;;20.80;55.50;;;;;;5125083;27;19934;-46
2022/07/31 10:39:46;;;;;;;;;;;21.70;54.90;;;;;;5142823;27;20005;-47
2022/07/31 10:42:14;;;;;;;;;;;21.60;53.30;;;;;;5168364;27;19926;-46
2022/07/31 10:44:44;;;;;;;;;;;20.90;52.70;;;;;;5143843;27;20037;-46
2022/07/31 10:47:10;;;;;;;;;;;20.50;52.00;;;;;;5162373;27;19962;-48
2022/07/31 10:49:37;;;;;;;;;;;20.30;51.70;;;;;;5167874;27;20583;-48
2022/07/31 10:52:03;;;;;;;;;;;20.20;51.10;;;;;;5160735;27;20009;-49
2022/07/31 10:54:36;;;;;;;;;;;20.00;50.90;;;;;;5161755;27;19942;-53
2022/07/31 10:57:02;;;;;;;;;;;19.90;50.90;;;;;;5167393;27;19974;-47
2022/07/31 10:59:28;;;;;;;;;;;20.00;50.40;;;;;;5142942;27;19923;-49
2022/07/31 11:01:54;;;;;;;;;;;20.60;54.70;;;;;;5167970;27;19970;-45
2022/07/31 11:04:31;;;;;;;;;;;21.50;54.80;;;;;;5161932;27;19930;-46
2022/07/31 11:06:56;;;;;;;;;;;21.70;53.10;;;;;;5161923;27;19923;-45
2022/07/31 11:09:22;;;;;;;;;;;20.90;52.70;;;;;;5167037;27;20026;-47
2022/07/31 11:11:48;;;;;;;;;;;20.60;51.90;;;;;;5160457;27;19927;-49
2022/07/31 11:14:15;;;;;;;;;;;20.30;51.60;;;;;;5160692;27;21263;-46
2022/07/31 11:16:50;;;;;;;;;;;20.10;51.70;;;;;;5167385;27;19934;-46
2022/07/31 11:19:16;;;;;;;;;;;20.20;50.80;;;;;;5162011;27;19931;-45
2022/07/31 11:21:42;;;;;;;;;;;20.00;50.90;;;;;;5161553;27;19950;-50
2022/07/31 11:24:14;;;;;;;;;;;20.00;52.20;;;;;;5167213;27;19952;-48
2022/07/31 11:26:58;;;;;;;;;;;20.80;55.10;;;;;;5162111;27;20362;-48
2022/07/31 11:29:27;;;;;;;;;;;21.80;54.40;;;;;;5156734;27;20021;-46
2022/07/31 11:31:53;;;;;;;;;;;21.30;53.30;;;;;;5166527;27;20006;-51
2022/07/31 11:34:19;;;;;;;;;;;20.70;52.60;;;;;;5142380;27;20060;-48
2022/07/31 11:36:45;;;;;;;;;;;20.40;51.90;;;;;;5152473;27;19931;-45
2022/07/31 11:39:11;;;;;;;;;;;20.30;51.50;;;;;;5165807;27;20373;-46
2022/07/31 11:41:37;;;;;;;;;;;20.20;51.10;;;;;;5165297;27;19923;-50
2022/07/31 11:44:03;;;;;;;;;;;20.00;51.10;;;;;;5170638;27;19927;-50
2022/07/31 11:46:30;;;;;;;;;;;20.00;50.70;;;;;;5164333;27;19926;-47
2022/07/31 11:48:56;;;;;;;;;;;20.00;51.40;;;;;;5143772;27;20708;-49
2022/07/31 11:51:22;;;;;;;;;;;20.70;55.00;;;;;;5170314;27;19926;-47
2022/07/31 11:53:48;;;;;;;;;;;21.60;54.40;;;;;;5165036;27;19927;-50
2022/07/31 11:56:17;;;;;;;;;;;21.50;53.20;;;;;;5170583;27;19926;-53
2022/07/31 11:58:47;;;;;;;;;;;20.80;52.50;;;;;;5167270;27;19931;-47
2022/07/31 12:01:13;;;;;;;;;;;20.50;52.10;;;;;;5164864;27;20056;-49
2022/07/31 12:03:38;;;;;;;;;;;20.30;51.50;;;;;;5151784;27;20277;-46
2022/07/31 12:06:05;;;;;;;;;;;20.20;51.10;;;;;;5163516;27;19923;-47
2022/07/31 12:08:30;;;;;;;;;;;20.30;50.60;;;;;;5164160;27;20370;-45
2022/07/31 12:10:56;;;;;;;;;;;20.20;50.40;;;;;;5170100;27;19922;-46
2022/07/31 12:13:23;;;;;;;;;;;20.00;50.70;;;;;;5146033;27;20010;-47
2022/07/31 12:16:07;;;;;;;;;;;20.50;54.30;;;;;;5164936;27;19952;-52
2022/07/31 12:18:45;;;;;;;;;;;21.30;55.10;;;;;;5170055;27;20005;-46
2022/07/31 12:21:11;;;;;;;;;;;21.80;53.20;;;;;;5164837;27;20029;-45
2022/07/31 12:23:50;;;;;;;;;;;21.00;52.90;;;;;;5163543;27;19942;-50
2022/07/31 12:26:22;;;;;;;;;;;20.70;52.10;;;;;;5150719;27;20297;-47
2022/07/31 12:29:14;;;;;;;;;;;20.40;51.80;;;;;;5164625;27;19926;-47
2022/07/31 12:31:44;;;;;;;;;;;20.40;51.10;;;;;;5159863;27;19926;-47
2022/07/31 12:34:10;;;;;;;;;;;20.20;50.90;;;;;;5170029;27;19927;-46
2022/07/31 12:36:36;;;;;;;;;;;20.30;50.50;;;;;;5164335;27;19945;-45
2022/07/31 12:39:02;;;;;;;;;;;20.20;50.60;;;;;;5164553;27;20362;-49
2022/07/31 12:41:28;;;;;;;;;;;19.80;50.90;;;;;;5168945;27;20427;-47
2022/07/31 12:43:54;;;;;;;;;;;20.30;53.50;;;;;;5162949;27;20022;-47
2022/07/31 12:46:20;;;;;;;;;;;21.10;55.50;;;;;;5168730;27;19934;-46
2022/07/31 12:48:46;;;;;;;;;;;22.00;54.20;;;;;;5164245;27;19923;-46
2022/07/31 12:51:12;;;;;;;;;;;21.20;53.30;;;;;;5164512;27;19953;-48
2022/07/31 12:53:38;;;;;;;;;;;20.80;52.50;;;;;;5169648;27;19935;-46
2022/07/31 12:56:04;;;;;;;;;;;20.40;52.30;;;;;;5164340;27;20014;-45
2022/07/31 12:58:30;;;;;;;;;;;20.40;51.30;;;;;;5164459;27;19927;-46
2022/07/31 13:00:56;;;;;;;;;;;20.20;51.20;;;;;;5168154;27;19930;-52
2022/07/31 13:03:21;;;;;;;;;;;20.20;51.00;;;;;;5162946;27;19974;-48
2022/07/31 13:05:47;;;;;;;;;;;20.10;50.60;;;;;;5169334;27;20275;-45
2022/07/31 13:08:13;;;;;;;;;;;20.10;50.60;;;;;;5164111;27;19923;-46
2022/07/31 13:10:39;;;;;;;;;;;20.30;54.20;;;;;;5164142;27;19926;-47
2022/07/31 13:13:05;;;;;;;;;;;21.30;55.30;;;;;;5169347;27;19922;-47
2022/07/31 13:15:31;;;;;;;;;;;21.90;53.60;;;;;;5163620;27;20343;-46
2022/07/31 13:17:57;;;;;;;;;;;21.30;52.50;;;;;;5144015;27;20220;-47
2022/07/31 13:20:23;;;;;;;;;;;20.90;52.30;;;;;;5167656;27;20426;-48
2022/07/31 13:22:49;;;;;;;;;;;20.60;52.00;;;;;;5163296;27;20030;-48
2022/07/31 13:25:15;;;;;;;;;;;20.60;51.00;;;;;;5169307;27;20067;-47
2022/07/31 13:27:41;;;;;;;;;;;20.40;50.80;;;;;;5163997;27;20002;-48
2022/07/31 13:30:07;;;;;;;;;;;20.30;50.70;;;;;;5163746;27;20388;-46
2022/07/31 13:32:33;;;;;;;;;;;20.20;50.60;;;;;;5168913;27;20339;-45
2022/07/31 13:34:58;;;;;;;;;;;20.20;50.20;;;;;;5144948;27;20039;-51
2022/07/31 13:37:24;;;;;;;;;;;20.10;50.00;;;;;;5162262;27;20149;-50
2022/07/31 13:39:50;;;;;;;;;;;20.20;49.80;;;;;;5167982;27;20118;-48
2022/07/31 13:42:16;;;;;;;;;;;20.40;53.40;;;;;;5163454;27;19923;-47
2022/07/31 13:44:41;;;;;;;;;;;21.30;54.50;;;;;;5167144;27;19926;-57
2022/07/31 13:47:07;;;;;;;;;;;21.80;53.10;;;;;;5166271;27;19927;-47
2022/07/31 13:49:33;;;;;;;;;;;21.40;52.10;;;;;;5163323;27;19929;-48
2022/07/31 13:51:59;;;;;;;;;;;20.80;51.80;;;;;;5168537;27;20343;-47
2022/07/31 13:54:25;;;;;;;;;;;20.80;51.10;;;;;;5162833;27;20386;-46
2022/07/31 13:56:51;;;;;;;;;;;20.60;50.90;;;;;;5161396;27;20013;-48
2022/07/31 13:59:17;;;;;;;;;;;20.40;50.60;;;;;;5167147;27;19989;-47
2022/07/31 14:01:44;;;;;;;;;;;20.30;50.30;;;;;;5163131;27;20288;-47
2022/07/31 14:04:10;;;;;;;;;;;20.30;50.20;;;;;;5163727;27;20341;-54
2022/07/31 14:06:36;;;;;;;;;;;20.30;50.10;;;;;;5168152;27;20007;-47
2022/07/31 14:09:02;;;;;;;;;;;20.30;49.80;;;;;;5162775;27;19974;-47
2022/07/31 14:11:28;;;;;;;;;;;20.20;49.50;;;;;;5168410;27;19927;-46
2022/07/31 14:13:53;;;;;;;;;;;19.90;50.20;;;;;;5141236;27;19930;-48
2022/07/31 14:16:19;;;;;;;;;;;20.70;52.80;;;;;;5161876;27;20425;-48